Time;durP1;ratioP1;P1;durP2;ratioP2;P2;SDS_P1;SDS_P2;PMS_P1;PMS_P2;Temp;Humidity;BMP_temperature;BMP_pressure;BME280_temperature;BME280_humidity;BME280_pressure;Samples;Min_cycle;Max_cycle;Signal;HPM_P1;HPM_P2
2021/05/23 00:01:18;;;;;;;1.80;0.93;;;;;;;19.33;44.62;101308.84;5069576;28;20112;-66
2021/05/23 00:03:45;;;;;;;2.13;1.17;;;;;;;19.31;44.62;101318.69;5069308;28;20119;-66
2021/05/23 00:06:14;;;;;;;4.45;1.10;;;;;;;19.26;45.00;101315.19;5069503;28;20127;-66
2021/05/23 00:08:41;;;;;;;4.22;1.30;;;;;;;19.23;44.92;101316.09;5069036;28;20045;-66
2021/05/23 00:11:09;;;;;;;2.72;1.17;;;;;;;19.24;45.05;101315.19;5069426;28;20048;-67
2021/05/23 00:13:41;;;;;;;3.28;1.50;;;;;;;19.24;45.59;101320.53;5069821;28;20040;-66
2021/05/23 00:16:10;;;;;;;4.78;1.00;;;;;;;19.23;46.00;101316.09;5067803;28;20048;-66
2021/05/23 00:18:39;;;;;;;3.67;1.75;;;;;;;19.21;45.95;101320.59;5068977;28;20120;-66
2021/05/23 00:21:07;;;;;;;4.63;1.00;;;;;;;19.20;45.57;101310.78;5068711;28;20047;-66
2021/05/23 00:23:35;;;;;;;2.10;1.02;;;;;;;19.17;45.57;101315.28;5068681;28;20112;-66
2021/05/23 00:26:03;;;;;;;2.00;0.98;;;;;;;19.15;45.75;101319.78;5069311;28;20597;-66
2021/05/23 00:28:31;;;;;;;3.40;1.17;;;;;;;19.17;45.35;101309.91;5068821;28;20125;-66
2021/05/23 00:30:58;;;;;;;4.57;0.90;;;;;;;19.18;45.31;101309.03;5067735;28;20127;-66
2021/05/23 00:33:25;;;;;;;2.83;1.08;;;;;;;19.15;45.47;101303.72;5069531;28;20037;-66
2021/05/23 00:35:52;;;;;;;2.45;1.10;;;;;;;19.11;45.89;101301.06;5069521;28;20041;-66
2021/05/23 00:38:19;;;;;;;4.90;1.10;;;;;;;19.10;46.33;101285.91;5068953;28;20111;-66
2021/05/23 00:40:47;;;;;;;1.75;1.17;;;;;;;19.13;46.58;101274.28;5069113;28;20043;-66
2021/05/23 00:43:17;;;;;;;3.60;1.00;;;;;;;19.14;46.56;101272.50;5069556;28;20550;-66
2021/05/23 00:45:46;;;;;;;3.03;1.20;;;;;;;19.09;46.65;101268.09;5068613;28;20459;-66
2021/05/23 00:48:13;;;;;;;5.53;1.48;;;;;;;19.05;46.57;101266.34;5064353;28;20075;-66
2021/05/23 00:50:41;;;;;;;2.88;0.90;;;;;;;19.05;46.51;101266.34;5069276;28;20067;-66
2021/05/23 00:53:09;;;;;;;4.47;1.23;;;;;;;19.04;46.35;101266.34;5068476;28;20120;-66
2021/05/23 00:55:36;;;;;;;2.88;1.42;;;;;;;19.05;46.24;101269.00;5069091;28;20037;-66
2021/05/23 00:58:06;;;;;;;2.47;1.20;;;;;;;19.06;46.36;101262.75;5068851;28;20060;-67
2021/05/23 01:01:07;;;;;;;2.38;1.20;;;;;;;19.06;45.98;101268.13;5068967;28;20033;-66
2021/05/23 01:03:57;;;;;;;2.85;1.23;;;;;;;19.00;46.35;101265.50;5068589;28;20025;-66
2021/05/23 01:06:25;;;;;;;2.08;1.10;;;;;;;18.93;46.04;101266.47;5068849;28;20518;-66
2021/05/23 01:08:53;;;;;;;3.33;1.10;;;;;;;18.91;46.07;101270.06;5069361;28;20075;-66
2021/05/23 01:11:53;;;;;;;4.28;1.27;;;;;;;18.93;45.93;101263.78;5067834;28;20049;-66
2021/05/23 01:14:44;;;;;;;2.78;1.00;;;;;;;18.89;46.17;101248.69;5068759;28;20125;-66
2021/05/23 01:17:14;;;;;;;1.58;0.85;;;;;;;18.85;45.93;101249.59;5067633;28;20045;-66
2021/05/23 01:20:04;;;;;;;4.55;1.10;;;;;;;18.87;45.75;101242.47;5067301;28;20127;-66
2021/05/23 01:22:37;;;;;;;2.25;1.10;;;;;;;18.86;45.82;101240.69;5065261;28;20059;-66
2021/05/23 01:25:17;;;;;;;2.97;1.15;;;;;;;18.84;45.93;101245.16;5068858;28;20421;-66
2021/05/23 01:27:47;;;;;;;3.45;1.13;;;;;;;18.84;45.33;101247.81;5068059;28;20068;-66
2021/05/23 01:30:18;;;;;;;3.55;1.00;;;;;;;18.87;45.51;101257.63;5068255;28;20041;-66
2021/05/23 01:32:49;;;;;;;2.40;1.10;;;;;;;18.80;45.63;101256.81;5068732;28;20082;-66
2021/05/23 01:35:22;;;;;;;3.30;1.02;;;;;;;18.77;45.82;101253.28;5068467;28;20114;-66
2021/05/23 01:37:52;;;;;;;1.45;1.08;;;;;;;18.72;45.81;101247.97;5068791;28;20108;-65
2021/05/23 01:40:21;;;;;;;1.42;0.90;;;;;;;18.72;45.92;101253.31;5067726;28;20044;-66
2021/05/23 01:42:49;;;;;;;2.33;0.95;;;;;;;18.76;45.65;101246.16;5069794;28;20500;-66
2021/05/23 01:45:17;;;;;;;2.00;1.20;;;;;;;18.74;45.50;101238.13;5072249;28;20041;-66
2021/05/23 01:47:45;;;;;;;3.50;1.00;;;;;;;18.68;45.76;101243.56;5072175;28;20087;-66
2021/05/23 01:50:13;;;;;;;4.72;1.02;;;;;;;18.66;45.67;101238.22;5072475;28;20132;-66
2021/05/23 01:52:48;;;;;;;2.60;1.10;;;;;;;18.70;45.24;101239.09;5071973;28;20037;-66
2021/05/23 01:55:15;;;;;;;;;;;;;;;18.67;45.28;101239.09;5072045;28;20040;-66
2021/05/23 01:57:44;;;;;;;2.30;0.98;;;;;;;18.64;44.98;101231.97;5071611;28;20363;-66
2021/05/23 02:00:16;;;;;;;4.07;1.55;;;;;;;18.66;45.14;101232.84;5071872;28;20132;-66
2021/05/23 02:02:44;;;;;;;5.45;1.25;;;;;;;18.64;44.86;101239.16;5071127;28;20036;-66
2021/05/23 02:05:12;;;;;;;7.00;1.10;;;;;;;18.62;44.97;101240.94;5072151;28;20051;-67
2021/05/23 02:07:39;;;;;;;3.88;1.33;;;;;;;18.61;44.78;101244.50;5071428;28;20115;-66
2021/05/23 02:10:09;;;;;;;1.63;1.13;;;;;;;18.57;44.71;101238.31;5071294;28;20127;-66
2021/05/23 02:12:36;;;;;;;6.07;1.60;;;;;;;18.45;44.72;101241.03;5061097;28;20029;-66
2021/05/23 02:15:07;;;;;;;2.83;1.30;;;;;;;18.41;45.17;101236.63;5071288;28;20049;-66
2021/05/23 02:17:35;;;;;;;3.70;1.02;;;;;;;18.37;45.37;101242.03;5071622;28;20040;-65
2021/05/23 02:20:04;;;;;;;2.35;1.10;;;;;;;18.30;45.44;101238.53;5071790;28;20043;-65
2021/05/23 02:22:31;;;;;;;5.68;1.50;;;;;;;18.27;44.86;101239.44;5071174;28;20131;-66
2021/05/23 02:24:58;;;;;;;1.58;0.95;;;;;;;18.29;44.83;101234.06;5070985;28;20527;-66
2021/05/23 02:27:25;;;;;;;4.57;1.15;;;;;;;18.28;45.05;101232.31;5071518;28;20052;-66
2021/05/23 02:29:52;;;;;;;3.30;1.50;;;;;;;18.30;44.82;101226.06;5067862;28;20522;-66
2021/05/23 02:32:20;;;;;;;2.00;1.17;;;;;;;18.31;44.86;101232.28;5071213;28;20115;-66
2021/05/23 02:34:47;;;;;;;2.63;1.33;;;;;;;18.30;44.88;101236.75;5071161;28;20128;-68
2021/05/23 02:37:14;;;;;;;4.15;1.25;;;;;;;18.32;44.97;101234.91;5070480;28;20515;-66
2021/05/23 02:39:41;;;;;;;2.05;1.25;;;;;;;18.32;45.12;101234.91;5071257;28;20106;-66
2021/05/23 02:42:08;;;;;;;3.80;1.58;;;;;;;18.30;45.25;101236.75;5071536;28;20128;-66
2021/05/23 02:44:35;;;;;;;3.13;1.58;;;;;;;18.28;44.96;101232.31;5069856;28;20579;-66
2021/05/23 02:47:02;;;;;;;5.30;1.55;;;;;;;18.30;45.13;101239.41;5071012;28;20037;-65
2021/05/23 02:49:31;;;;;;;2.42;1.45;;;;;;;18.36;45.14;101245.59;5071084;28;20041;-66
2021/05/23 02:51:58;;;;;;;3.92;1.70;;;;;;;18.35;44.88;101249.16;5068860;28;20059;-66
2021/05/23 02:54:25;;;;;;;5.50;1.55;;;;;;;18.29;45.13;101240.31;5070771;28;20078;-66
2021/05/23 02:56:52;;;;;;;3.83;1.70;;;;;;;18.40;44.90;101237.53;5071100;28;20080;-66
2021/05/23 02:59:19;;;;;;;4.85;1.83;;;;;;;18.45;44.94;101243.72;5070125;28;20135;-65
2021/05/23 03:01:46;;;;;;;3.83;1.80;;;;;;;18.43;44.87;101244.66;5070957;28;20052;-65
2021/05/23 03:04:13;;;;;;;3.67;1.70;;;;;;;18.41;44.75;101241.09;5070114;28;20048;-66
2021/05/23 03:06:42;;;;;;;3.72;1.55;;;;;;;18.39;45.01;101237.53;5071140;28;20055;-66
2021/05/23 03:09:08;;;;;;;5.20;1.85;;;;;;;18.33;45.04;101243.84;5070173;28;20071;-65
2021/05/23 03:11:36;;;;;;;4.88;1.70;;;;;;;18.26;44.84;101250.13;5070441;28;20127;-66
2021/05/23 03:14:03;;;;;;;3.63;1.50;;;;;;;18.25;44.92;101249.25;5069945;28;20043;-65
2021/05/23 03:16:30;;;;;;;3.03;1.60;;;;;;;18.29;45.08;101258.13;5070122;28;20155;-66
2021/05/23 03:18:57;;;;;;;7.05;1.63;;;;;;;18.33;44.79;101266.09;5070610;28;20074;-65
2021/05/23 03:21:24;;;;;;;7.15;1.73;;;;;;;18.39;44.57;101270.50;5070424;28;20041;-66
2021/05/23 03:23:52;;;;;;;3.92;1.80;;;;;;;18.45;44.80;101278.47;5070502;28;20047;-65
2021/05/23 03:26:19;;;;;;;4.93;1.95;;;;;;;18.53;44.97;101279.31;5050246;28;20421;-65
2021/05/23 03:28:46;;;;;;;5.05;1.90;;;;;;;18.69;44.60;101285.44;5068981;28;20636;-67
2021/05/23 03:31:14;;;;;;;4.88;1.85;;;;;;;18.89;44.45;101277.22;5070208;28;20476;-66
2021/05/23 03:33:41;;;;;;;4.55;2.00;;;;;;;19.07;44.22;101277.03;5069680;28;20119;-66
2021/05/23 03:36:08;;;;;;;7.63;2.05;;;;;;;19.18;44.15;101271.53;5069713;28;20052;-66
2021/05/23 03:38:35;;;;;;;4.25;1.80;;;;;;;19.29;44.52;101280.34;5070104;28;20040;-67
2021/05/23 03:41:04;;;;;;;8.23;2.15;;;;;;;19.36;44.75;101287.41;5069484;28;20045;-66
2021/05/23 03:43:31;;;;;;;4.65;1.90;;;;;;;19.48;44.48;101290.88;5069157;28;20047;-67
2021/05/23 03:45:58;;;;;;;3.92;1.98;;;;;;;19.64;44.53;101296.88;5070262;28;20116;-66
2021/05/23 03:48:25;;;;;;;6.25;1.83;;;;;;;19.79;44.56;101294.03;5069996;28;20476;-66
2021/05/23 03:50:52;;;;;;;4.72;1.40;;;;;;;19.96;44.29;101282.16;5070180;28;20194;-66
2021/05/23 03:53:19;;;;;;;3.75;1.60;;;;;;;20.10;44.03;101274.81;5069341;28;20115;-66
2021/05/23 03:55:46;;;;;;;2.33;1.60;;;;;;;20.29;44.13;101282.53;5069434;28;20097;-66
2021/05/23 03:58:14;;;;;;;5.95;2.33;;;;;;;20.46;44.33;101282.31;5069263;28;20131;-67
2021/05/23 04:00:41;;;;;;;4.40;1.45;;;;;;;20.64;44.15;101286.47;5068711;28;20040;-66
2021/05/23 04:03:29;;;;;;;6.45;2.10;;;;;;;20.81;43.60;101291.53;5070056;28;20032;-66
2021/05/23 04:05:57;;;;;;;4.22;1.40;;;;;;;20.95;43.26;101290.34;5068686;28;20041;-67
2021/05/23 04:08:25;;;;;;;6.03;1.63;;;;;;;21.06;42.78;101298.25;5069392;28;20124;-66
2021/05/23 04:10:57;;;;;;;1.55;1.17;;;;;;;21.24;42.70;101299.72;5069150;28;20049;-66
2021/05/23 04:13:26;;;;;;;3.90;1.90;;;;;;;21.48;42.40;101296.50;5069386;28;20040;-67
2021/05/23 04:15:53;;;;;;;2.97;1.40;;;;;;;21.73;42.14;101288.81;5068893;28;20048;-66
2021/05/23 04:18:20;;;;;;;2.40;1.30;;;;;;;21.95;42.08;101287.44;5068005;28;20048;-66
2021/05/23 04:20:47;;;;;;;4.22;2.08;;;;;;;22.10;41.27;101291.59;5069375;28;20036;-66
2021/05/23 04:23:14;;;;;;;4.78;1.52;;;;;;;22.25;40.96;101302.00;5069386;28;20473;-67
2021/05/23 04:25:42;;;;;;;3.90;1.50;;;;;;;22.44;40.78;101310.53;5068626;28;20063;-66
2021/05/23 04:28:09;;;;;;;2.65;1.45;;;;;;;22.67;40.46;101309.00;5069175;28;20083;-66
2021/05/23 04:30:37;;;;;;;3.70;1.50;;;;;;;22.93;39.85;101311.06;5069387;28;20036;-66
2021/05/23 04:33:05;;;;;;;2.30;1.10;;;;;;;23.15;39.79;101311.38;5068606;28;20165;-66
2021/05/23 04:35:32;;;;;;;3.83;1.30;;;;;;;23.36;39.33;101308.09;5068387;28;20036;-66
2021/05/23 04:38:01;;;;;;;3.75;1.30;;;;;;;23.68;38.47;101309.00;5069246;28;20123;-67
2021/05/23 04:40:28;;;;;;;2.78;1.40;;;;;;;23.97;38.03;101300.00;5068698;28;20064;-66
2021/05/23 04:42:56;;;;;;;4.13;1.40;;;;;;;24.21;37.50;101307.38;5068802;28;20044;-66
2021/05/23 04:45:24;;;;;;;3.42;1.08;;;;;;;24.38;37.36;101310.41;5068957;28;20047;-67
2021/05/23 04:47:52;;;;;;;4.63;1.30;;;;;;;24.63;36.91;101316.75;5069120;28;20044;-66
2021/05/23 04:50:20;;;;;;;2.92;1.30;;;;;;;24.92;36.11;101325.72;5068663;28;20063;-66
2021/05/23 04:52:47;;;;;;;4.40;1.50;;;;;;;25.07;35.94;101336.00;5069052;28;20120;-67
2021/05/23 04:55:14;;;;;;;1.65;0.90;;;;;;;25.34;35.42;101335.00;5068310;28;20162;-67
2021/05/23 04:57:41;;;;;;;4.43;1.40;;;;;;;25.55;34.72;101336.03;5068482;28;20186;-66
2021/05/23 05:00:10;;;;;;;2.78;1.13;;;;;;;25.74;34.04;101333.53;5068719;28;20045;-66
2021/05/23 05:02:38;;;;;;;3.38;1.40;;;;;;;25.89;33.66;101337.50;5066401;28;20520;-66
2021/05/23 05:05:09;;;;;;;3.10;1.10;;;;;;;26.22;33.35;101336.19;5066849;28;20028;-66
2021/05/23 05:07:36;;;;;;;3.78;1.42;;;;;;;26.46;33.53;101345.16;5069205;28;20037;-66
2021/05/23 05:10:04;;;;;;;1.98;1.20;;;;;;;26.68;32.83;101337.91;5060587;28;20041;-66
2021/05/23 05:12:32;;;;;;;3.08;1.40;;;;;;;26.83;32.16;101329.16;5062518;28;20068;-66
2021/05/23 05:14:59;;;;;;;4.32;1.33;;;;;;;27.02;31.70;101331.09;5075651;28;20043;-66
2021/05/23 05:17:26;;;;;;;2.83;1.30;;;;;;;27.15;31.10;101343.16;5069137;28;20039;-66
2021/05/23 05:19:53;;;;;;;2.92;1.30;;;;;;;27.34;31.30;101349.53;5070022;28;20048;-66
2021/05/23 05:22:21;;;;;;;3.38;1.58;;;;;;;27.58;30.98;101342.16;5064870;28;20041;-66
2021/05/23 05:24:48;;;;;;;3.20;1.15;;;;;;;27.83;31.14;101344.63;5072175;28;20032;-66
2021/05/23 05:27:15;;;;;;;3.17;1.48;;;;;;;27.99;30.51;101351.09;5064549;28;20037;-66
2021/05/23 05:29:42;;;;;;;3.53;1.35;;;;;;;28.29;30.01;101354.22;5072262;28;20493;-66
2021/05/23 05:32:10;;;;;;;4.53;1.52;;;;;;;28.46;29.97;101356.97;5071379;28;20048;-66
2021/05/23 05:34:37;;;;;;;4.13;1.50;;;;;;;28.70;29.73;101361.19;5064951;28;20119;-66
2021/05/23 05:37:04;;;;;;;6.30;1.58;;;;;;;28.95;29.60;101363.56;5070305;28;20112;-66
2021/05/23 05:39:33;;;;;;;3.88;1.38;;;;;;;29.21;29.23;101346.78;5070427;28;20163;-66
2021/05/23 05:42:02;;;;;;;4.03;1.67;;;;;;;29.26;28.48;101349.28;5071310;28;20434;-67
2021/05/23 05:44:29;;;;;;;2.83;1.20;;;;;;;29.30;27.97;101362.63;5071957;28;20037;-66
2021/05/23 05:46:56;;;;;;;4.25;1.70;;;;;;;29.58;27.88;101362.09;5070031;28;20389;-66
2021/05/23 05:49:23;;;;;;;2.92;1.55;;;;;;;29.76;27.30;101367.47;5065271;28;20588;-66
2021/05/23 05:51:50;;;;;;;6.15;1.55;;;;;;;29.81;27.23;101369.00;5071399;28;20106;-66
2021/05/23 05:54:17;;;;;;;3.47;1.40;;;;;;;29.79;27.40;101370.06;5071293;28;20036;-67
2021/05/23 05:56:45;;;;;;;5.65;1.55;;;;;;;29.88;26.81;101367.69;5066050;28;20060;-66
2021/05/23 05:59:12;;;;;;;4.72;1.75;;;;;;;29.92;26.65;101355.72;5069516;28;20586;-66
2021/05/23 06:01:40;;;;;;;4.80;2.00;;;;;;;30.07;26.85;101362.13;5071383;28;20591;-67
2021/05/23 06:04:07;;;;;;;3.92;1.55;;;;;;;30.18;26.91;101367.88;5071728;28;20053;-67
2021/05/23 06:06:34;;;;;;;4.30;1.60;;;;;;;30.36;26.69;101363.22;5071213;28;20463;-67
2021/05/23 06:09:00;;;;;;;4.00;1.50;;;;;;;30.46;26.19;101368.03;5070991;28;20361;-67
2021/05/23 06:11:28;;;;;;;2.45;1.27;;;;;;;30.29;26.37;101379.03;5059169;28;20033;-68
2021/05/23 06:13:56;;;;;;;3.47;1.13;;;;;;;30.35;26.17;101388.72;5058341;28;20060;-67
2021/05/23 06:16:23;;;;;;;6.85;1.40;;;;;;;30.29;25.69;101384.50;5051722;28;20064;-67
2021/05/23 06:18:50;;;;;;;2.35;1.25;;;;;;;30.37;25.64;101386.78;5060412;28;20106;-68
2021/05/23 06:21:18;;;;;;;1.98;1.15;;;;;;;30.32;25.64;101378.00;5052248;28;20141;-68
2021/05/23 06:23:45;;;;;;;1.80;1.15;;;;;;;30.25;25.30;101377.47;5064486;28;20120;-67
2021/05/23 06:26:13;;;;;;;3.42;1.23;;;;;;;30.28;25.30;101380.00;5056992;28;20040;-67
2021/05/23 06:28:41;;;;;;;1.75;1.30;;;;;;;30.31;25.45;101377.13;5067880;28;20501;-67
2021/05/23 06:31:09;;;;;;;4.68;1.30;;;;;;;30.44;25.42;101375.44;5070070;28;20041;-68
2021/05/23 06:33:36;;;;;;;3.50;1.30;;;;;;;30.53;25.33;101371.31;5070736;28;20040;-67
2021/05/23 06:36:04;;;;;;;1.90;1.23;;;;;;;30.60;25.80;101380.91;5069960;28;20053;-67
2021/05/23 06:38:31;;;;;;;3.67;1.40;;;;;;;30.70;25.59;101389.44;5070982;28;20051;-67
2021/05/23 06:40:58;;;;;;;2.20;1.00;;;;;;;30.73;25.50;101384.69;5070867;28;20047;-68
2021/05/23 06:43:25;;;;;;;2.95;1.15;;;;;;;30.84;25.37;101384.06;5070977;28;20081;-67
2021/05/23 06:45:52;;;;;;;2.25;1.10;;;;;;;30.85;25.17;101377.66;5071351;28;20147;-67
2021/05/23 06:48:21;;;;;;;1.67;1.00;;;;;;;30.56;24.76;101384.78;5069873;28;20135;-67
2021/05/23 06:50:49;;;;;;;1.73;1.00;;;;;;;30.45;25.02;101379.06;5071068;28;20060;-67
2021/05/23 06:53:16;;;;;;;2.60;1.00;;;;;;;30.61;24.94;101390.84;5070503;28;20046;-65
2021/05/23 06:55:43;;;;;;;2.78;1.10;;;;;;;30.72;24.83;101402.00;5064098;28;20116;-65
2021/05/23 06:58:10;;;;;;;4.35;1.10;;;;;;;30.85;24.70;101400.31;5069490;28;20132;-65
2021/05/23 07:00:37;;;;;;;2.55;1.00;;;;;;;30.88;24.21;101397.44;5069826;28;20071;-65
2021/05/23 07:03:05;;;;;;;1.60;1.10;;;;;;;30.87;23.96;101401.13;5069832;28;20064;-65
2021/05/23 07:05:33;;;;;;;1.92;0.90;;;;;;;31.02;23.90;101398.47;5070050;28;20135;-68
2021/05/23 07:08:00;;;;;;;2.47;0.90;;;;;;;31.15;24.29;101402.25;5070423;28;20048;-66
2021/05/23 07:10:27;;;;;;;3.83;1.08;;;;;;;31.17;24.45;101406.66;5070796;28;20463;-66
2021/05/23 07:12:54;;;;;;;2.25;1.00;;;;;;;31.16;23.92;101413.09;5070789;28;20127;-66
2021/05/23 07:15:21;;;;;;;0.57;0.57;;;;;;;31.17;24.13;101417.56;5070812;28;20125;-66
2021/05/23 07:17:50;;;;;;;1.55;0.70;;;;;;;31.19;23.82;101421.06;5070417;28;20128;-66
2021/05/23 07:20:17;;;;;;;1.63;0.93;;;;;;;31.28;23.63;101411.47;5070797;28;20040;-66
2021/05/23 07:22:46;;;;;;;2.17;0.77;;;;;;;31.30;23.48;101404.06;5070298;28;20032;-66
2021/05/23 07:25:14;;;;;;;2.30;0.98;;;;;;;31.39;22.95;101402.59;5070359;28;20037;-66
2021/05/23 07:27:41;;;;;;;3.38;0.80;;;;;;;31.49;23.09;101391.03;5070433;28;20172;-66
2021/05/23 07:30:09;;;;;;;1.85;0.70;;;;;;;31.71;22.86;101403.38;5070581;28;20044;-66
2021/05/23 07:32:36;;;;;;;2.78;1.00;;;;;;;31.83;22.76;101408.09;5070127;28;20044;-66
2021/05/23 07:35:04;;;;;;;2.28;1.00;;;;;;;31.90;22.48;101406.75;5070320;28;20047;-66
2021/05/23 07:37:31;;;;;;;2.28;0.90;;;;;;;31.81;22.08;101404.56;5068796;28;20044;-67
2021/05/23 07:39:59;;;;;;;3.47;1.08;;;;;;;31.72;21.69;101408.75;5069929;28;20068;-67
2021/05/23 07:42:26;;;;;;;2.97;1.10;;;;;;;31.69;22.22;101406.22;5070345;28;20493;-66
2021/05/23 07:44:53;;;;;;;3.05;0.90;;;;;;;31.67;21.66;101394.50;5069962;28;20078;-66
2021/05/23 07:47:20;;;;;;;1.92;0.75;;;;;;;31.52;21.64;101393.56;5069673;28;20126;-66
2021/05/23 07:49:48;;;;;;;1.20;0.80;;;;;;;31.62;21.48;101396.66;5070125;28;20074;-66
2021/05/23 07:52:15;;;;;;;1.42;0.70;;;;;;;31.56;21.63;101395.16;5069443;28;20068;-66
2021/05/23 07:54:42;;;;;;;2.10;1.17;;;;;;;31.56;21.89;101394.28;5069992;28;20120;-66
2021/05/23 07:57:11;;;;;;;2.13;0.90;;;;;;;31.73;21.57;101394.13;5069236;28;20492;-66
2021/05/23 07:59:38;;;;;;;2.70;1.20;;;;;;;31.82;21.42;101407.22;5069484;28;20519;-66
2021/05/23 08:02:05;;;;;;;2.05;1.10;;;;;;;31.87;21.33;101404.19;5069819;28;20044;-66
2021/05/23 08:04:32;;;;;;;1.67;1.02;;;;;;;31.94;21.45;101408.28;5069958;28;20503;-66
2021/05/23 08:06:59;;;;;;;1.73;0.90;;;;;;;32.11;21.51;101397.16;5070014;28;20492;-66
2021/05/23 08:09:25;;;;;;;2.58;0.90;;;;;;;32.21;21.45;101403.84;5069284;28;20096;-66
2021/05/23 08:11:53;;;;;;;1.83;0.70;;;;;;;32.32;21.63;101400.41;5069821;28;20083;-66
2021/05/23 08:14:21;;;;;;;3.17;1.00;;;;;;;32.49;21.06;101411.13;5069466;28;20048;-66
2021/05/23 08:16:48;;;;;;;1.70;0.82;;;;;;;32.56;21.11;101408.88;5069724;28;20045;-66
2021/05/23 08:19:16;;;;;;;1.83;0.70;;;;;;;32.63;20.85;101412.91;5069735;28;20036;-66
2021/05/23 08:21:44;;;;;;;1.75;0.80;;;;;;;32.56;21.38;101409.72;5069365;28;20071;-66
2021/05/23 08:24:11;;;;;;;2.28;0.95;;;;;;;32.70;21.18;101411.56;5069079;28;20186;-66
2021/05/23 08:26:38;;;;;;;3.40;0.77;;;;;;;32.62;21.00;101413.94;5069366;28;20028;-66
2021/05/23 08:29:06;;;;;;;4.55;0.90;;;;;;;32.69;21.23;101418.06;5069033;28;20090;-66
2021/05/23 08:31:34;;;;;;;2.40;0.80;;;;;;;32.51;21.41;101403.69;5069486;28;20560;-66
2021/05/23 08:34:03;;;;;;;3.70;1.17;;;;;;;32.19;21.55;101403.03;5069104;28;20124;-66
2021/05/23 08:36:30;;;;;;;2.58;0.90;;;;;;;32.02;22.13;101398.66;5069861;28;20037;-66
2021/05/23 08:38:57;;;;;;;2.00;0.70;;;;;;;31.80;22.67;101400.09;5069229;28;20044;-66
2021/05/23 08:41:24;;;;;;;4.18;0.68;;;;;;;31.98;22.55;101401.66;5069314;28;20116;-66
2021/05/23 08:43:53;;;;;;;2.60;0.80;;;;;;;32.16;22.33;101399.66;5069426;28;20178;-66
2021/05/23 08:46:20;;;;;;;4.53;1.17;;;;;;;32.35;22.00;101401.09;5069326;28;20123;-66
2021/05/23 08:48:49;;;;;;;3.33;0.85;;;;;;;32.36;21.95;101401.97;5068176;28;20040;-66
2021/05/23 08:51:17;;;;;;;1.58;0.88;;;;;;;32.39;21.92;101399.03;5069008;28;20043;-66
2021/05/23 08:53:45;;;;;;;2.63;1.00;;;;;;;32.56;21.31;101398.78;5069035;28;20043;-65
2021/05/23 08:56:12;;;;;;;2.72;0.80;;;;;;;32.70;21.44;101403.38;5068989;28;20042;-66
2021/05/23 08:58:39;;;;;;;1.42;0.57;;;;;;;32.70;20.54;101397.91;5069197;28;20086;-66
2021/05/23 09:01:06;;;;;;;2.03;0.60;;;;;;;32.59;20.66;101392.22;5068939;28;20029;-66
2021/05/23 09:03:33;;;;;;;1.50;0.60;;;;;;;32.40;21.24;101403.50;5068755;28;20515;-66
2021/05/23 09:06:02;;;;;;;2.03;0.77;;;;;;;32.67;21.50;101398.13;5069667;28;20057;-66
2021/05/23 09:08:30;;;;;;;1.98;0.77;;;;;;;32.86;20.79;101408.69;5069191;28;20545;-66
2021/05/23 09:10:59;;;;;;;1.92;0.73;;;;;;;32.88;21.20;101410.38;5068850;28;20044;-66
2021/05/23 09:13:30;;;;;;;3.40;0.95;;;;;;;32.82;21.17;101402.56;5069105;28;20132;-67
2021/05/23 09:16:03;;;;;;;2.47;0.90;;;;;;;32.89;20.88;101405.75;5068758;28;20199;-66
2021/05/23 09:18:42;;;;;;;3.80;1.05;;;;;;;32.81;21.39;101409.03;5068899;28;20037;-66
2021/05/23 09:21:11;;;;;;;1.45;0.70;;;;;;;32.63;21.64;101410.19;5068823;28;20045;-66
2021/05/23 09:23:46;;;;;;;3.08;1.02;;;;;;;32.64;22.05;101412.81;5067206;28;20048;-66
2021/05/23 09:26:19;;;;;;;2.70;0.80;;;;;;;32.84;21.91;101414.28;5068582;28;20044;-66
2021/05/23 09:28:46;;;;;;;1.45;0.75;;;;;;;32.78;21.24;101410.09;5068644;28;20074;-67
2021/05/23 09:31:15;;;;;;;3.05;0.63;;;;;;;32.80;21.90;101412.72;5068725;28;20194;-66
2021/05/23 09:33:44;;;;;;;1.08;0.50;;;;;;;33.05;21.88;101414.69;5068455;28;20048;-66
2021/05/23 09:36:12;;;;;;;1.33;0.80;;;;;;;33.03;22.08;101414.78;5069141;28;20496;-66
2021/05/23 09:38:54;;;;;;;2.22;1.35;;;;;;;33.00;21.60;101409.53;5068562;28;20058;-66
2021/05/23 09:41:23;;;;;;;4.13;1.30;;;;;;;32.72;21.45;101404.16;5068972;28;20047;-67
2021/05/23 09:43:51;;;;;;;1.85;0.82;;;;;;;32.63;21.40;101407.44;5068191;28;20471;-66
2021/05/23 09:46:18;;;;;;;1.73;0.80;;;;;;;32.63;21.56;101411.06;5068293;28;20097;-66
2021/05/23 09:48:50;;;;;;;3.92;1.00;;;;;;;32.86;21.21;101415.06;5068676;28;20555;-66
2021/05/23 09:51:18;;;;;;;5.32;1.38;;;;;;;32.82;21.16;101402.56;5068196;28;20119;-66
2021/05/23 09:53:58;;;;;;;1.10;0.82;;;;;;;32.71;20.83;101400.53;5068361;28;20400;-67
2021/05/23 09:56:31;;;;;;;2.00;0.80;;;;;;;32.59;20.81;101395.84;5068679;28;20033;-66
2021/05/23 09:58:58;;;;;;;2.07;1.00;;;;;;;32.38;21.19;101397.25;5068413;28;20044;-66
2021/05/23 10:01:27;;;;;;;2.50;0.88;;;;;;;32.30;21.55;101399.59;5068930;28;20112;-66
2021/05/23 10:03:56;;;;;;;1.55;0.70;;;;;;;32.12;21.39;101396.19;5069032;28;20049;-66
2021/05/23 10:06:28;;;;;;;1.70;0.70;;;;;;;32.31;21.55;101404.09;5072034;28;20043;-66
2021/05/23 10:08:56;;;;;;;4.55;0.98;;;;;;;32.31;21.50;101410.44;5072155;28;20120;-66
2021/05/23 10:11:24;;;;;;;3.10;0.80;;;;;;;32.22;21.14;101407.44;5071806;28;20043;-66
2021/05/23 10:13:51;;;;;;;1.45;0.75;;;;;;;32.30;21.40;101400.50;5071924;28;20059;-66
2021/05/23 10:16:18;;;;;;;3.08;0.90;;;;;;;31.94;21.81;101397.38;5071948;28;20412;-66
2021/05/23 10:18:46;;;;;;;6.55;1.20;;;;;;;31.53;22.19;101381.69;5072099;28;20064;-68
2021/05/23 10:21:13;;;;;;;3.38;0.93;;;;;;;31.55;22.50;101398.84;5070929;28;20045;-66
2021/05/23 10:23:48;;;;;;;3.08;1.08;;;;;;;31.47;22.34;101392.97;5072026;28;20052;-66
2021/05/23 10:26:21;;;;;;;2.53;1.55;;;;;;;31.43;22.73;101391.44;5071610;28;20047;-66
2021/05/23 10:28:51;;;;;;;4.03;1.10;;;;;;;31.42;22.69;101394.25;5072104;28;20508;-66
2021/05/23 10:31:28;;;;;;;2.38;0.98;;;;;;;31.50;22.67;101389.19;5071668;28;20119;-66
2021/05/23 10:33:56;;;;;;;4.25;0.95;;;;;;;31.55;22.99;101393.41;5071462;28;20036;-66
2021/05/23 10:36:34;;;;;;;2.85;0.90;;;;;;;31.56;23.32;101389.69;5071253;28;20564;-66
2021/05/23 10:39:07;;;;;;;1.85;0.88;;;;;;;31.54;23.28;101390.75;5071845;28;20051;-66
2021/05/23 10:41:34;;;;;;;1.85;0.80;;;;;;;31.52;23.74;101385.38;5070942;28;20065;-66
2021/05/23 10:44:05;;;;;;;3.00;1.13;;;;;;;31.70;23.49;101386.16;5071895;28;20041;-66
2021/05/23 10:46:32;;;;;;;3.13;1.00;;;;;;;31.51;23.52;101391.81;5071578;28;20090;-66
2021/05/23 10:49:01;;;;;;;1.23;0.70;;;;;;;31.69;23.47;101380.78;5070905;28;20049;-66
2021/05/23 10:51:29;;;;;;;2.42;0.93;;;;;;;31.91;22.34;101381.16;5068977;28;20557;-66
2021/05/23 10:53:56;;;;;;;6.22;0.90;;;;;;;32.02;22.65;101381.38;5071057;28;20071;-66
2021/05/23 10:56:28;;;;;;;4.13;1.00;;;;;;;32.26;23.33;101385.28;5070233;28;20045;-67
2021/05/23 10:58:59;;;;;;;1.92;0.73;;;;;;;32.47;23.45;101374.78;5064722;28;20060;-66
2021/05/23 11:01:44;;;;;;;3.38;1.10;;;;;;;32.62;23.61;101378.38;5068744;28;20576;-66
2021/05/23 11:04:13;;;;;;;2.90;1.35;;;;;;;32.76;23.14;101381.06;5069924;28;20029;-67
2021/05/23 11:06:41;;;;;;;2.60;1.25;;;;;;;32.97;23.70;101368.69;5070961;28;20040;-67
2021/05/23 11:09:11;;;;;;;2.30;1.05;;;;;;;32.97;23.82;101357.72;5063359;28;20041;-67
2021/05/23 11:11:39;;;;;;;6.20;1.50;;;;;;;32.65;23.91;101357.16;5070493;28;20036;-67
2021/05/23 11:14:18;;;;;;;2.33;1.30;;;;;;;32.87;24.28;101348.41;5070539;28;20067;-66
2021/05/23 11:16:50;;;;;;;3.63;1.38;;;;;;;32.50;24.74;101341.75;5070031;28;20036;-66
2021/05/23 11:19:17;;;;;;;1.88;1.05;;;;;;;32.91;24.32;101347.19;5071040;28;20154;-66
2021/05/23 11:21:46;;;;;;;2.92;1.00;;;;;;;33.22;23.50;101356.94;5069310;28;20111;-66
2021/05/23 11:24:14;;;;;;;2.47;1.20;;;;;;;33.16;23.47;101354.59;5070117;28;20132;-66
2021/05/23 11:26:43;;;;;;;3.65;1.13;;;;;;;33.09;23.20;101337.72;5070123;28;20128;-67
2021/05/23 11:29:11;;;;;;;2.33;0.98;;;;;;;33.48;23.08;101346.88;5070356;28;20052;-67
2021/05/23 11:31:39;;;;;;;1.55;0.80;;;;;;;33.71;22.56;101337.97;5067587;28;20064;-67